sensor_id;sensor_type;location;lat;lon;timestamp;P1;durP1;ratioP1;P2;durP2;ratioP2
40827;SDS011;26549;50.918;5.338;2023-08-30T00:02:04;8.10;;;6.80;;
40827;SDS011;26549;50.918;5.338;2023-08-30T00:04:30;9.52;;;6.82;;
40827;SDS011;26549;50.918;5.338;2023-08-30T00:06:56;12.93;;;7.18;;
40827;SDS011;26549;50.918;5.338;2023-08-30T00:09:22;13.73;;;7.18;;
40827;SDS011;26549;50.918;5.338;2023-08-30T00:11:48;6.90;;;5.90;;
40827;SDS011;26549;50.918;5.338;2023-08-30T00:14:14;10.43;;;7.78;;
40827;SDS011;26549;50.918;5.338;2023-08-30T00:16:40;10.65;;;7.82;;
40827;SDS011;26549;50.918;5.338;2023-08-30T00:19:06;8.63;;;7.47;;
40827;SDS011;26549;50.918;5.338;2023-08-30T00:21:32;9.70;;;7.32;;
40827;SDS011;26549;50.918;5.338;2023-08-30T00:23:59;12.80;;;7.97;;
40827;SDS011;26549;50.918;5.338;2023-08-30T00:26:25;12.32;;;7.85;;
40827;SDS011;26549;50.918;5.338;2023-08-30T00:28:51;10.15;;;6.90;;
40827;SDS011;26549;50.918;5.338;2023-08-30T00:31:17;10.23;;;7.82;;
40827;SDS011;26549;50.918;5.338;2023-08-30T00:33:44;10.27;;;7.03;;
40827;SDS011;26549;50.918;5.338;2023-08-30T00:36:10;9.93;;;7.15;;
40827;SDS011;26549;50.918;5.338;2023-08-30T00:38:36;11.07;;;8.30;;
40827;SDS011;26549;50.918;5.338;2023-08-30T00:41:02;9.73;;;7.45;;
40827;SDS011;26549;50.918;5.338;2023-08-30T00:43:28;12.02;;;7.93;;
40827;SDS011;26549;50.918;5.338;2023-08-30T00:45:54;9.93;;;7.75;;
40827;SDS011;26549;50.918;5.338;2023-08-30T00:48:20;10.07;;;6.63;;
40827;SDS011;26549;50.918;5.338;2023-08-30T00:50:47;10.02;;;6.68;;
40827;SDS011;26549;50.918;5.338;2023-08-30T00:53:13;9.85;;;7.10;;
40827;SDS011;26549;50.918;5.338;2023-08-30T00:55:41;9.45;;;6.80;;
40827;SDS011;26549;50.918;5.338;2023-08-30T00:58:08;8.90;;;6.65;;
40827;SDS011;26549;50.918;5.338;2023-08-30T01:00:35;11.00;;;7.60;;
40827;SDS011;26549;50.918;5.338;2023-08-30T01:03:02;10.95;;;6.65;;
40827;SDS011;26549;50.918;5.338;2023-08-30T01:05:30;8.50;;;7.43;;
40827;SDS011;26549;50.918;5.338;2023-08-30T01:07:56;9.23;;;7.45;;
40827;SDS011;26549;50.918;5.338;2023-08-30T01:10:26;9.63;;;7.35;;
40827;SDS011;26549;50.918;5.338;2023-08-30T01:13:04;10.35;;;7.53;;
40827;SDS011;26549;50.918;5.338;2023-08-30T01:15:38;8.70;;;6.32;;
40827;SDS011;26549;50.918;5.338;2023-08-30T01:18:06;10.48;;;7.70;;
40827;SDS011;26549;50.918;5.338;2023-08-30T01:20:35;8.80;;;6.88;;
40827;SDS011;26549;50.918;5.338;2023-08-30T01:23:11;8.60;;;6.75;;
40827;SDS011;26549;50.918;5.338;2023-08-30T01:28:33;10.35;;;7.10;;
40827;SDS011;26549;50.918;5.338;2023-08-30T01:31:03;8.45;;;6.78;;
40827;SDS011;26549;50.918;5.338;2023-08-30T01:33:31;9.07;;;6.97;;
40827;SDS011;26549;50.918;5.338;2023-08-30T01:35:58;10.10;;;7.43;;
40827;SDS011;26549;50.918;5.338;2023-08-30T01:38:25;12.25;;;7.05;;
40827;SDS011;26549;50.918;5.338;2023-08-30T01:40:53;12.05;;;7.85;;
40827;SDS011;26549;50.918;5.338;2023-08-30T01:43:22;10.18;;;7.50;;
40827;SDS011;26549;50.918;5.338;2023-08-30T01:45:50;11.02;;;7.15;;
40827;SDS011;26549;50.918;5.338;2023-08-30T01:48:16;11.57;;;7.35;;
40827;SDS011;26549;50.918;5.338;2023-08-30T01:50:44;10.13;;;8.18;;
40827;SDS011;26549;50.918;5.338;2023-08-30T01:53:11;9.02;;;6.57;;
40827;SDS011;26549;50.918;5.338;2023-08-30T01:55:38;8.93;;;7.25;;
40827;SDS011;26549;50.918;5.338;2023-08-30T01:58:05;10.07;;;6.97;;
40827;SDS011;26549;50.918;5.338;2023-08-30T02:00:32;10.80;;;7.57;;
40827;SDS011;26549;50.918;5.338;2023-08-30T02:02:58;10.75;;;6.80;;
40827;SDS011;26549;50.918;5.338;2023-08-30T02:05:24;9.75;;;7.68;;
40827;SDS011;26549;50.918;5.338;2023-08-30T02:10:23;11.40;;;8.00;;
40827;SDS011;26549;50.918;5.338;2023-08-30T02:12:54;10.80;;;7.50;;
40827;SDS011;26549;50.918;5.338;2023-08-30T02:15:21;10.48;;;7.43;;
40827;SDS011;26549;50.918;5.338;2023-08-30T02:17:51;14.40;;;8.20;;
40827;SDS011;26549;50.918;5.338;2023-08-30T02:20:17;10.20;;;7.80;;
40827;SDS011;26549;50.918;5.338;2023-08-30T02:22:44;9.48;;;7.22;;
40827;SDS011;26549;50.918;5.338;2023-08-30T02:25:10;11.68;;;7.88;;
40827;SDS011;26549;50.918;5.338;2023-08-30T02:27:36;10.35;;;7.70;;
40827;SDS011;26549;50.918;5.338;2023-08-30T02:30:02;9.63;;;7.03;;
40827;SDS011;26549;50.918;5.338;2023-08-30T02:32:29;10.20;;;7.60;;
40827;SDS011;26549;50.918;5.338;2023-08-30T02:34:55;10.32;;;6.97;;
40827;SDS011;26549;50.918;5.338;2023-08-30T02:37:22;12.43;;;6.82;;
40827;SDS011;26549;50.918;5.338;2023-08-30T02:39:48;8.45;;;6.93;;
40827;SDS011;26549;50.918;5.338;2023-08-30T02:42:14;11.10;;;7.53;;
40827;SDS011;26549;50.918;5.338;2023-08-30T02:44:40;10.18;;;7.95;;
40827;SDS011;26549;50.918;5.338;2023-08-30T02:47:06;11.27;;;7.40;;
40827;SDS011;26549;50.918;5.338;2023-08-30T02:49:32;10.40;;;7.03;;
40827;SDS011;26549;50.918;5.338;2023-08-30T02:51:59;10.45;;;7.20;;
40827;SDS011;26549;50.918;5.338;2023-08-30T02:54:25;9.57;;;6.97;;
40827;SDS011;26549;50.918;5.338;2023-08-30T02:56:51;14.73;;;7.65;;
40827;SDS011;26549;50.918;5.338;2023-08-30T02:59:17;10.85;;;8.45;;
40827;SDS011;26549;50.918;5.338;2023-08-30T03:01:43;11.07;;;7.72;;
40827;SDS011;26549;50.918;5.338;2023-08-30T03:04:09;10.30;;;7.47;;
40827;SDS011;26549;50.918;5.338;2023-08-30T03:06:35;9.65;;;7.82;;
40827;SDS011;26549;50.918;5.338;2023-08-30T03:09:02;10.55;;;8.35;;
40827;SDS011;26549;50.918;5.338;2023-08-30T03:11:28;9.32;;;8.27;;
40827;SDS011;26549;50.918;5.338;2023-08-30T03:13:54;12.68;;;8.45;;
40827;SDS011;26549;50.918;5.338;2023-08-30T03:16:21;11.18;;;8.70;;
40827;SDS011;26549;50.918;5.338;2023-08-30T03:18:47;10.30;;;8.43;;
40827;SDS011;26549;50.918;5.338;2023-08-30T03:21:13;9.00;;;7.43;;
40827;SDS011;26549;50.918;5.338;2023-08-30T03:23:40;17.25;;;8.63;;
40827;SDS011;26549;50.918;5.338;2023-08-30T03:26:10;10.30;;;8.63;;
40827;SDS011;26549;50.918;5.338;2023-08-30T03:28:37;12.80;;;8.80;;
40827;SDS011;26549;50.918;5.338;2023-08-30T03:31:13;14.68;;;10.57;;
40827;SDS011;26549;50.918;5.338;2023-08-30T03:33:39;12.00;;;8.45;;
40827;SDS011;26549;50.918;5.338;2023-08-30T03:36:09;13.45;;;9.27;;
40827;SDS011;26549;50.918;5.338;2023-08-30T03:38:36;12.40;;;9.30;;
40827;SDS011;26549;50.918;5.338;2023-08-30T03:41:03;13.50;;;10.25;;
40827;SDS011;26549;50.918;5.338;2023-08-30T03:43:30;13.02;;;9.85;;
40827;SDS011;26549;50.918;5.338;2023-08-30T03:45:59;11.85;;;9.73;;
40827;SDS011;26549;50.918;5.338;2023-08-30T03:48:29;15.75;;;9.18;;
40827;SDS011;26549;50.918;5.338;2023-08-30T03:50:56;13.23;;;9.80;;
40827;SDS011;26549;50.918;5.338;2023-08-30T03:53:23;16.38;;;9.25;;
40827;SDS011;26549;50.918;5.338;2023-08-30T03:55:50;10.98;;;8.27;;
40827;SDS011;26549;50.918;5.338;2023-08-30T03:58:17;12.85;;;9.27;;
40827;SDS011;26549;50.918;5.338;2023-08-30T04:00:44;14.70;;;9.77;;
40827;SDS011;26549;50.918;5.338;2023-08-30T04:03:14;13.48;;;9.85;;
40827;SDS011;26549;50.918;5.338;2023-08-30T04:05:40;12.38;;;10.13;;
40827;SDS011;26549;50.918;5.338;2023-08-30T04:08:07;14.23;;;9.45;;
40827;SDS011;26549;50.918;5.338;2023-08-30T04:10:40;16.23;;;10.65;;
40827;SDS011;26549;50.918;5.338;2023-08-30T04:13:07;17.10;;;9.48;;
40827;SDS011;26549;50.918;5.338;2023-08-30T04:15:36;17.13;;;10.07;;
40827;SDS011;26549;50.918;5.338;2023-08-30T04:18:04;14.75;;;10.30;;
40827;SDS011;26549;50.918;5.338;2023-08-30T04:20:31;14.98;;;9.07;;
40827;SDS011;26549;50.918;5.338;2023-08-30T04:22:58;17.23;;;9.68;;
40827;SDS011;26549;50.918;5.338;2023-08-30T04:25:29;12.93;;;9.45;;
40827;SDS011;26549;50.918;5.338;2023-08-30T04:27:55;12.90;;;9.45;;
40827;SDS011;26549;50.918;5.338;2023-08-30T04:30:22;11.63;;;8.80;;
40827;SDS011;26549;50.918;5.338;2023-08-30T04:32:48;17.95;;;9.30;;
40827;SDS011;26549;50.918;5.338;2023-08-30T04:35:14;13.30;;;8.73;;
40827;SDS011;26549;50.918;5.338;2023-08-30T04:37:40;12.55;;;8.88;;
40827;SDS011;26549;50.918;5.338;2023-08-30T04:40:08;11.63;;;9.80;;
40827;SDS011;26549;50.918;5.338;2023-08-30T04:42:36;15.85;;;9.00;;
40827;SDS011;26549;50.918;5.338;2023-08-30T04:45:04;12.07;;;9.10;;
40827;SDS011;26549;50.918;5.338;2023-08-30T04:47:31;11.75;;;9.07;;
40827;SDS011;26549;50.918;5.338;2023-08-30T04:49:58;12.13;;;9.10;;
40827;SDS011;26549;50.918;5.338;2023-08-30T04:52:24;14.15;;;9.48;;
40827;SDS011;26549;50.918;5.338;2023-08-30T04:54:51;13.85;;;9.52;;
40827;SDS011;26549;50.918;5.338;2023-08-30T04:57:17;14.57;;;9.10;;
40827;SDS011;26549;50.918;5.338;2023-08-30T04:59:44;12.48;;;9.82;;
40827;SDS011;26549;50.918;5.338;2023-08-30T05:02:11;14.27;;;9.70;;
40827;SDS011;26549;50.918;5.338;2023-08-30T05:04:37;13.48;;;8.35;;
40827;SDS011;26549;50.918;5.338;2023-08-30T05:07:03;14.80;;;10.20;;
40827;SDS011;26549;50.918;5.338;2023-08-30T05:09:30;15.18;;;10.45;;
40827;SDS011;26549;50.918;5.338;2023-08-30T05:11:57;12.93;;;8.98;;
40827;SDS011;26549;50.918;5.338;2023-08-30T05:14:24;9.80;;;8.75;;
40827;SDS011;26549;50.918;5.338;2023-08-30T05:16:50;15.90;;;9.05;;
40827;SDS011;26549;50.918;5.338;2023-08-30T05:19:16;12.30;;;9.05;;
40827;SDS011;26549;50.918;5.338;2023-08-30T05:21:42;13.07;;;8.65;;
40827;SDS011;26549;50.918;5.338;2023-08-30T05:24:08;13.30;;;8.18;;
40827;SDS011;26549;50.918;5.338;2023-08-30T05:26:35;8.77;;;6.75;;
40827;SDS011;26549;50.918;5.338;2023-08-30T05:29:02;10.27;;;8.07;;
40827;SDS011;26549;50.918;5.338;2023-08-30T05:31:28;9.82;;;7.00;;
40827;SDS011;26549;50.918;5.338;2023-08-30T05:33:55;12.13;;;7.50;;
40827;SDS011;26549;50.918;5.338;2023-08-30T05:36:21;10.77;;;7.25;;
40827;SDS011;26549;50.918;5.338;2023-08-30T05:38:47;11.60;;;7.22;;
40827;SDS011;26549;50.918;5.338;2023-08-30T05:41:13;7.90;;;5.88;;
40827;SDS011;26549;50.918;5.338;2023-08-30T05:43:39;9.88;;;6.38;;
40827;SDS011;26549;50.918;5.338;2023-08-30T05:46:05;8.80;;;5.90;;
40827;SDS011;26549;50.918;5.338;2023-08-30T05:48:37;8.90;;;6.22;;
40827;SDS011;26549;50.918;5.338;2023-08-30T05:51:03;7.10;;;5.95;;
40827;SDS011;26549;50.918;5.338;2023-08-30T05:53:29;10.82;;;6.32;;
40827;SDS011;26549;50.918;5.338;2023-08-30T05:55:55;6.65;;;5.47;;
40827;SDS011;26549;50.918;5.338;2023-08-30T05:58:21;9.52;;;5.55;;
40827;SDS011;26549;50.918;5.338;2023-08-30T06:00:47;8.10;;;5.35;;
40827;SDS011;26549;50.918;5.338;2023-08-30T06:03:13;6.85;;;5.18;;
40827;SDS011;26549;50.918;5.338;2023-08-30T06:05:39;7.45;;;5.93;;
40827;SDS011;26549;50.918;5.338;2023-08-30T06:08:06;8.95;;;5.45;;
40827;SDS011;26549;50.918;5.338;2023-08-30T06:10:33;8.60;;;5.05;;
40827;SDS011;26549;50.918;5.338;2023-08-30T06:12:59;7.60;;;4.57;;
40827;SDS011;26549;50.918;5.338;2023-08-30T06:15:25;7.22;;;4.60;;
40827;SDS011;26549;50.918;5.338;2023-08-30T06:17:51;5.82;;;4.05;;
40827;SDS011;26549;50.918;5.338;2023-08-30T06:20:22;8.45;;;5.35;;
40827;SDS011;26549;50.918;5.338;2023-08-30T06:22:48;7.80;;;5.03;;
40827;SDS011;26549;50.918;5.338;2023-08-30T06:25:15;8.43;;;5.47;;
40827;SDS011;26549;50.918;5.338;2023-08-30T06:27:41;8.45;;;5.10;;
40827;SDS011;26549;50.918;5.338;2023-08-30T06:30:09;4.55;;;3.95;;
40827;SDS011;26549;50.918;5.338;2023-08-30T06:32:36;4.20;;;3.53;;
40827;SDS011;26549;50.918;5.338;2023-08-30T06:35:02;6.97;;;3.25;;
40827;SDS011;26549;50.918;5.338;2023-08-30T06:37:29;6.72;;;3.38;;
40827;SDS011;26549;50.918;5.338;2023-08-30T06:39:58;5.85;;;3.25;;
40827;SDS011;26549;50.918;5.338;2023-08-30T06:42:27;8.07;;;3.65;;
40827;SDS011;26549;50.918;5.338;2023-08-30T06:44:53;4.00;;;2.60;;
40827;SDS011;26549;50.918;5.338;2023-08-30T06:47:19;3.70;;;2.90;;
40827;SDS011;26549;50.918;5.338;2023-08-30T06:49:46;3.63;;;2.38;;
40827;SDS011;26549;50.918;5.338;2023-08-30T06:52:12;3.65;;;2.47;;
40827;SDS011;26549;50.918;5.338;2023-08-30T06:54:38;2.30;;;2.05;;
40827;SDS011;26549;50.918;5.338;2023-08-30T06:57:04;3.58;;;2.30;;
40827;SDS011;26549;50.918;5.338;2023-08-30T06:59:32;2.47;;;2.25;;
40827;SDS011;26549;50.918;5.338;2023-08-30T07:01:58;5.35;;;2.20;;
40827;SDS011;26549;50.918;5.338;2023-08-30T07:04:24;3.70;;;2.20;;
40827;SDS011;26549;50.918;5.338;2023-08-30T07:06:50;5.18;;;2.75;;
40827;SDS011;26549;50.918;5.338;2023-08-30T07:09:16;5.18;;;2.13;;
40827;SDS011;26549;50.918;5.338;2023-08-30T07:11:43;12.68;;;2.72;;
40827;SDS011;26549;50.918;5.338;2023-08-30T07:14:10;3.38;;;2.13;;
40827;SDS011;26549;50.918;5.338;2023-08-30T07:16:37;3.63;;;2.20;;
40827;SDS011;26549;50.918;5.338;2023-08-30T07:19:04;2.85;;;2.10;;
40827;SDS011;26549;50.918;5.338;2023-08-30T07:21:30;4.90;;;2.67;;
40827;SDS011;26549;50.918;5.338;2023-08-30T07:23:56;4.10;;;2.60;;
40827;SDS011;26549;50.918;5.338;2023-08-30T07:26:23;3.83;;;2.35;;
40827;SDS011;26549;50.918;5.338;2023-08-30T07:28:49;5.82;;;2.45;;
40827;SDS011;26549;50.918;5.338;2023-08-30T07:31:18;3.65;;;2.55;;
40827;SDS011;26549;50.918;5.338;2023-08-30T07:33:46;3.50;;;2.38;;
40827;SDS011;26549;50.918;5.338;2023-08-30T07:36:12;2.65;;;2.08;;
40827;SDS011;26549;50.918;5.338;2023-08-30T07:38:40;3.08;;;2.35;;
40827;SDS011;26549;50.918;5.338;2023-08-30T07:41:06;3.47;;;1.95;;
40827;SDS011;26549;50.918;5.338;2023-08-30T07:43:32;2.47;;;2.08;;
40827;SDS011;26549;50.918;5.338;2023-08-30T07:46:05;5.53;;;2.20;;
40827;SDS011;26549;50.918;5.338;2023-08-30T07:48:33;1.85;;;1.70;;
40827;SDS011;26549;50.918;5.338;2023-08-30T07:51:00;5.55;;;2.33;;
40827;SDS011;26549;50.918;5.338;2023-08-30T07:53:26;1.73;;;1.48;;
40827;SDS011;26549;50.918;5.338;2023-08-30T07:55:52;2.85;;;2.30;;
40827;SDS011;26549;50.918;5.338;2023-08-30T07:58:20;3.60;;;2.42;;
40827;SDS011;26549;50.918;5.338;2023-08-30T08:00:52;4.47;;;2.15;;
40827;SDS011;26549;50.918;5.338;2023-08-30T08:03:21;3.15;;;2.63;;
40827;SDS011;26549;50.918;5.338;2023-08-30T08:05:48;3.50;;;2.33;;
40827;SDS011;26549;50.918;5.338;2023-08-30T08:08:14;2.45;;;2.17;;
40827;SDS011;26549;50.918;5.338;2023-08-30T08:10:43;2.88;;;2.25;;
40827;SDS011;26549;50.918;5.338;2023-08-30T08:13:09;4.43;;;2.20;;
40827;SDS011;26549;50.918;5.338;2023-08-30T08:15:36;3.97;;;2.67;;
40827;SDS011;26549;50.918;5.338;2023-08-30T08:18:02;5.57;;;2.70;;
40827;SDS011;26549;50.918;5.338;2023-08-30T08:20:29;3.75;;;2.35;;
40827;SDS011;26549;50.918;5.338;2023-08-30T08:22:55;4.95;;;2.08;;
40827;SDS011;26549;50.918;5.338;2023-08-30T08:25:21;7.30;;;2.58;;
40827;SDS011;26549;50.918;5.338;2023-08-30T08:27:48;4.18;;;2.20;;
40827;SDS011;26549;50.918;5.338;2023-08-30T08:30:17;4.53;;;2.60;;
40827;SDS011;26549;50.918;5.338;2023-08-30T08:32:45;4.47;;;2.67;;
40827;SDS011;26549;50.918;5.338;2023-08-30T08:35:12;4.97;;;3.40;;
40827;SDS011;26549;50.918;5.338;2023-08-30T08:37:38;5.82;;;3.10;;
40827;SDS011;26549;50.918;5.338;2023-08-30T08:40:04;4.32;;;2.95;;
40827;SDS011;26549;50.918;5.338;2023-08-30T08:42:34;6.30;;;3.67;;
40827;SDS011;26549;50.918;5.338;2023-08-30T08:45:03;4.28;;;3.65;;
40827;SDS011;26549;50.918;5.338;2023-08-30T08:47:30;9.95;;;3.63;;
40827;SDS011;26549;50.918;5.338;2023-08-30T08:49:56;6.22;;;3.25;;
40827;SDS011;26549;50.918;5.338;2023-08-30T08:52:23;9.05;;;3.53;;
40827;SDS011;26549;50.918;5.338;2023-08-30T08:54:52;7.50;;;3.35;;
40827;SDS011;26549;50.918;5.338;2023-08-30T08:57:24;4.82;;;3.30;;
40827;SDS011;26549;50.918;5.338;2023-08-30T08:59:57;6.03;;;3.35;;
40827;SDS011;26549;50.918;5.338;2023-08-30T09:02:33;3.78;;;3.05;;
40827;SDS011;26549;50.918;5.338;2023-08-30T09:05:00;6.90;;;3.33;;
40827;SDS011;26549;50.918;5.338;2023-08-30T09:07:27;7.45;;;3.38;;
40827;SDS011;26549;50.918;5.338;2023-08-30T09:09:55;5.07;;;3.00;;
40827;SDS011;26549;50.918;5.338;2023-08-30T09:12:24;3.60;;;2.97;;
40827;SDS011;26549;50.918;5.338;2023-08-30T09:14:54;6.93;;;3.08;;
40827;SDS011;26549;50.918;5.338;2023-08-30T09:17:23;6.20;;;3.38;;
40827;SDS011;26549;50.918;5.338;2023-08-30T09:20:12;9.20;;;3.88;;
40827;SDS011;26549;50.918;5.338;2023-08-30T09:22:43;6.57;;;3.10;;
40827;SDS011;26549;50.918;5.338;2023-08-30T09:25:09;3.85;;;2.67;;
40827;SDS011;26549;50.918;5.338;2023-08-30T09:27:36;6.22;;;2.75;;
40827;SDS011;26549;50.918;5.338;2023-08-30T09:30:07;4.65;;;2.63;;
40827;SDS011;26549;50.918;5.338;2023-08-30T09:32:39;4.78;;;3.20;;
40827;SDS011;26549;50.918;5.338;2023-08-30T09:35:07;3.92;;;3.10;;
40827;SDS011;26549;50.918;5.338;2023-08-30T09:37:33;2.92;;;2.47;;
40827;SDS011;26549;50.918;5.338;2023-08-30T09:39:59;3.40;;;2.08;;
40827;SDS011;26549;50.918;5.338;2023-08-30T09:42:25;4.82;;;3.05;;
40827;SDS011;26549;50.918;5.338;2023-08-30T09:44:51;3.75;;;3.35;;
40827;SDS011;26549;50.918;5.338;2023-08-30T09:47:18;4.25;;;2.53;;
40827;SDS011;26549;50.918;5.338;2023-08-30T09:49:45;3.30;;;2.45;;
40827;SDS011;26549;50.918;5.338;2023-08-30T09:52:14;4.22;;;2.75;;
40827;SDS011;26549;50.918;5.338;2023-08-30T09:54:42;3.63;;;2.40;;
40827;SDS011;26549;50.918;5.338;2023-08-30T09:57:11;5.55;;;2.65;;
40827;SDS011;26549;50.918;5.338;2023-08-30T09:59:38;4.63;;;2.38;;
40827;SDS011;26549;50.918;5.338;2023-08-30T10:02:05;4.22;;;2.80;;
40827;SDS011;26549;50.918;5.338;2023-08-30T10:04:32;4.20;;;2.88;;
40827;SDS011;26549;50.918;5.338;2023-08-30T10:06:58;4.30;;;2.25;;
40827;SDS011;26549;50.918;5.338;2023-08-30T10:09:24;3.35;;;3.05;;
40827;SDS011;26549;50.918;5.338;2023-08-30T10:11:50;5.80;;;3.08;;
40827;SDS011;26549;50.918;5.338;2023-08-30T10:14:17;4.03;;;2.33;;
40827;SDS011;26549;50.918;5.338;2023-08-30T10:16:45;2.72;;;2.28;;
40827;SDS011;26549;50.918;5.338;2023-08-30T10:21:49;3.42;;;2.38;;
40827;SDS011;26549;50.918;5.338;2023-08-30T10:24:22;3.95;;;3.00;;
40827;SDS011;26549;50.918;5.338;2023-08-30T10:26:52;6.88;;;5.60;;
40827;SDS011;26549;50.918;5.338;2023-08-30T10:29:20;3.22;;;2.88;;
40827;SDS011;26549;50.918;5.338;2023-08-30T10:31:48;4.40;;;3.45;;
40827;SDS011;26549;50.918;5.338;2023-08-30T10:34:15;6.90;;;4.80;;
40827;SDS011;26549;50.918;5.338;2023-08-30T10:36:44;3.40;;;2.60;;
40827;SDS011;26549;50.918;5.338;2023-08-30T10:39:13;3.25;;;2.53;;
40827;SDS011;26549;50.918;5.338;2023-08-30T10:41:55;4.18;;;2.63;;
40827;SDS011;26549;50.918;5.338;2023-08-30T10:44:22;4.43;;;2.10;;
40827;SDS011;26549;50.918;5.338;2023-08-30T10:46:55;2.35;;;2.13;;
40827;SDS011;26549;50.918;5.338;2023-08-30T10:49:21;3.17;;;2.60;;
40827;SDS011;26549;50.918;5.338;2023-08-30T10:51:57;2.78;;;1.98;;
40827;SDS011;26549;50.918;5.338;2023-08-30T10:56:56;2.58;;;1.58;;
40827;SDS011;26549;50.918;5.338;2023-08-30T10:59:25;1.67;;;1.58;;
40827;SDS011;26549;50.918;5.338;2023-08-30T11:02:00;2.08;;;1.90;;
40827;SDS011;26549;50.918;5.338;2023-08-30T11:04:26;1.40;;;1.23;;
40827;SDS011;26549;50.918;5.338;2023-08-30T11:06:52;2.47;;;1.30;;
40827;SDS011;26549;50.918;5.338;2023-08-30T11:09:18;1.38;;;1.27;;
40827;SDS011;26549;50.918;5.338;2023-08-30T11:11:46;1.08;;;0.98;;
40827;SDS011;26549;50.918;5.338;2023-08-30T11:14:13;2.08;;;1.23;;
40827;SDS011;26549;50.918;5.338;2023-08-30T11:16:43;1.25;;;1.15;;
40827;SDS011;26549;50.918;5.338;2023-08-30T11:19:10;1.00;;;0.90;;
40827;SDS011;26549;50.918;5.338;2023-08-30T11:21:42;0.95;;;0.93;;
40827;SDS011;26549;50.918;5.338;2023-08-30T11:24:09;1.42;;;1.33;;
40827;SDS011;26549;50.918;5.338;2023-08-30T11:26:36;1.17;;;1.08;;
40827;SDS011;26549;50.918;5.338;2023-08-30T11:29:05;1.20;;;1.10;;
40827;SDS011;26549;50.918;5.338;2023-08-30T11:31:34;1.00;;;0.90;;
40827;SDS011;26549;50.918;5.338;2023-08-30T11:34:00;2.58;;;1.20;;
40827;SDS011;26549;50.918;5.338;2023-08-30T11:36:28;1.33;;;1.10;;
40827;SDS011;26549;50.918;5.338;2023-08-30T11:38:58;1.40;;;1.00;;
40827;SDS011;26549;50.918;5.338;2023-08-30T11:41:24;1.52;;;1.20;;
40827;SDS011;26549;50.918;5.338;2023-08-30T11:43:51;1.00;;;0.85;;
40827;SDS011;26549;50.918;5.338;2023-08-30T11:46:18;1.52;;;1.10;;
40827;SDS011;26549;50.918;5.338;2023-08-30T11:48:44;1.20;;;1.10;;
40827;SDS011;26549;50.918;5.338;2023-08-30T11:51:12;1.30;;;1.20;;
40827;SDS011;26549;50.918;5.338;2023-08-30T11:53:39;1.55;;;1.17;;
40827;SDS011;26549;50.918;5.338;2023-08-30T11:56:05;1.50;;;1.40;;
40827;SDS011;26549;50.918;5.338;2023-08-30T11:58:32;2.60;;;1.80;;
40827;SDS011;26549;50.918;5.338;2023-08-30T12:00:59;1.88;;;1.77;;
40827;SDS011;26549;50.918;5.338;2023-08-30T12:03:27;1.80;;;1.55;;
40827;SDS011;26549;50.918;5.338;2023-08-30T12:05:54;2.17;;;1.80;;
40827;SDS011;26549;50.918;5.338;2023-08-30T12:08:20;1.92;;;1.65;;
40827;SDS011;26549;50.918;5.338;2023-08-30T12:10:48;3.17;;;1.98;;
40827;SDS011;26549;50.918;5.338;2023-08-30T12:13:27;2.25;;;1.98;;
40827;SDS011;26549;50.918;5.338;2023-08-30T12:15:57;2.35;;;1.65;;
40827;SDS011;26549;50.918;5.338;2023-08-30T12:18:28;2.60;;;1.92;;
40827;SDS011;26549;50.918;5.338;2023-08-30T12:20:59;2.22;;;1.80;;
40827;SDS011;26549;50.918;5.338;2023-08-30T12:23:28;2.92;;;1.52;;
40827;SDS011;26549;50.918;5.338;2023-08-30T12:25:59;2.00;;;1.80;;
40827;SDS011;26549;50.918;5.338;2023-08-30T12:28:35;3.92;;;2.65;;
40827;SDS011;26549;50.918;5.338;2023-08-30T12:31:03;2.67;;;2.05;;
40827;SDS011;26549;50.918;5.338;2023-08-30T12:33:30;2.20;;;1.95;;
40827;SDS011;26549;50.918;5.338;2023-08-30T12:35:57;3.20;;;1.92;;
40827;SDS011;26549;50.918;5.338;2023-08-30T12:38:26;2.83;;;2.53;;
40827;SDS011;26549;50.918;5.338;2023-08-30T12:40:53;3.80;;;2.38;;
40827;SDS011;26549;50.918;5.338;2023-08-30T12:43:19;5.35;;;1.92;;
40827;SDS011;26549;50.918;5.338;2023-08-30T12:45:46;3.08;;;2.22;;
40827;SDS011;26549;50.918;5.338;2023-08-30T12:48:13;2.88;;;2.35;;
40827;SDS011;26549;50.918;5.338;2023-08-30T12:53:12;2.50;;;2.30;;
40827;SDS011;26549;50.918;5.338;2023-08-30T12:55:41;2.80;;;2.45;;
40827;SDS011;26549;50.918;5.338;2023-08-30T12:58:07;4.43;;;2.00;;
40827;SDS011;26549;50.918;5.338;2023-08-30T13:00:34;3.70;;;2.58;;
40827;SDS011;26549;50.918;5.338;2023-08-30T13:03:01;2.85;;;2.55;;
40827;SDS011;26549;50.918;5.338;2023-08-30T13:05:30;2.88;;;2.15;;
40827;SDS011;26549;50.918;5.338;2023-08-30T13:07:58;2.92;;;2.15;;
40827;SDS011;26549;50.918;5.338;2023-08-30T13:10:26;5.55;;;2.40;;
40827;SDS011;26549;50.918;5.338;2023-08-30T13:12:52;2.97;;;2.67;;
40827;SDS011;26549;50.918;5.338;2023-08-30T13:15:18;5.22;;;3.17;;
40827;SDS011;26549;50.918;5.338;2023-08-30T13:17:44;9.43;;;3.70;;
40827;SDS011;26549;50.918;5.338;2023-08-30T13:20:11;5.85;;;2.90;;
40827;SDS011;26549;50.918;5.338;2023-08-30T13:22:38;4.30;;;2.80;;
40827;SDS011;26549;50.918;5.338;2023-08-30T13:25:06;3.78;;;3.22;;
40827;SDS011;26549;50.918;5.338;2023-08-30T13:27:32;4.80;;;3.10;;
40827;SDS011;26549;50.918;5.338;2023-08-30T13:30:00;6.55;;;4.15;;
40827;SDS011;26549;50.918;5.338;2023-08-30T13:32:26;3.83;;;2.75;;
40827;SDS011;26549;50.918;5.338;2023-08-30T13:34:53;5.90;;;4.03;;
40827;SDS011;26549;50.918;5.338;2023-08-30T13:37:18;5.20;;;2.22;;
40827;SDS011;26549;50.918;5.338;2023-08-30T13:39:44;5.50;;;3.53;;
40827;SDS011;26549;50.918;5.338;2023-08-30T13:42:11;4.30;;;2.85;;
40827;SDS011;26549;50.918;5.338;2023-08-30T13:44:37;3.63;;;2.05;;
40827;SDS011;26549;50.918;5.338;2023-08-30T13:47:06;2.85;;;2.08;;
40827;SDS011;26549;50.918;5.338;2023-08-30T13:49:31;3.53;;;1.90;;
40827;SDS011;26549;50.918;5.338;2023-08-30T13:51:57;5.40;;;1.92;;
40827;SDS011;26549;50.918;5.338;2023-08-30T13:54:24;8.93;;;2.17;;
40827;SDS011;26549;50.918;5.338;2023-08-30T13:56:51;2.58;;;1.60;;
40827;SDS011;26549;50.918;5.338;2023-08-30T13:59:17;6.40;;;2.08;;
40827;SDS011;26549;50.918;5.338;2023-08-30T14:01:43;6.85;;;2.15;;
40827;SDS011;26549;50.918;5.338;2023-08-30T14:04:09;6.72;;;2.10;;
40827;SDS011;26549;50.918;5.338;2023-08-30T14:06:36;7.38;;;2.47;;
40827;SDS011;26549;50.918;5.338;2023-08-30T14:09:02;6.82;;;1.77;;
40827;SDS011;26549;50.918;5.338;2023-08-30T14:11:30;6.85;;;1.95;;
40827;SDS011;26549;50.918;5.338;2023-08-30T14:13:56;7.63;;;1.73;;
40827;SDS011;26549;50.918;5.338;2023-08-30T14:16:22;5.50;;;1.50;;
40827;SDS011;26549;50.918;5.338;2023-08-30T14:18:49;8.68;;;3.33;;
40827;SDS011;26549;50.918;5.338;2023-08-30T14:21:14;4.45;;;1.92;;
40827;SDS011;26549;50.918;5.338;2023-08-30T14:23:40;5.45;;;1.33;;
40827;SDS011;26549;50.918;5.338;2023-08-30T14:26:06;4.43;;;1.27;;
40827;SDS011;26549;50.918;5.338;2023-08-30T14:28:38;5.55;;;1.30;;
40827;SDS011;26549;50.918;5.338;2023-08-30T14:31:08;4.50;;;1.35;;
40827;SDS011;26549;50.918;5.338;2023-08-30T14:33:43;3.40;;;2.08;;
40827;SDS011;26549;50.918;5.338;2023-08-30T14:36:12;6.55;;;3.05;;
40827;SDS011;26549;50.918;5.338;2023-08-30T14:38:39;2.80;;;1.27;;
40827;SDS011;26549;50.918;5.338;2023-08-30T14:41:06;3.20;;;1.48;;
40827;SDS011;26549;50.918;5.338;2023-08-30T14:43:32;3.38;;;1.08;;
40827;SDS011;26549;50.918;5.338;2023-08-30T14:45:59;4.65;;;1.20;;
40827;SDS011;26549;50.918;5.338;2023-08-30T14:48:26;6.68;;;1.33;;
40827;SDS011;26549;50.918;5.338;2023-08-30T14:50:51;3.50;;;1.30;;
40827;SDS011;26549;50.918;5.338;2023-08-30T14:53:17;6.63;;;1.10;;
40827;SDS011;26549;50.918;5.338;2023-08-30T14:55:46;4.32;;;1.38;;
40827;SDS011;26549;50.918;5.338;2023-08-30T14:58:12;4.43;;;1.13;;